sensor_id;sensor_type;location;lat;lon;timestamp;P1;durP1;ratioP1;P2;durP2;ratioP2
64885;SDS011;51514;52.206;5.114;2024-01-06T00:00:52;10.05;;;7.25;;
64885;SDS011;51514;52.206;5.114;2024-01-06T00:03:18;11.30;;;8.15;;
64885;SDS011;51514;52.206;5.114;2024-01-06T00:05:43;8.60;;;6.80;;
64885;SDS011;51514;52.206;5.114;2024-01-06T00:08:08;9.25;;;7.07;;
64885;SDS011;51514;52.206;5.114;2024-01-06T00:10:34;9.07;;;6.75;;
64885;SDS011;51514;52.206;5.114;2024-01-06T00:12:59;9.95;;;6.70;;
64885;SDS011;51514;52.206;5.114;2024-01-06T00:15:24;7.53;;;5.63;;
64885;SDS011;51514;52.206;5.114;2024-01-06T00:17:49;8.55;;;5.95;;
64885;SDS011;51514;52.206;5.114;2024-01-06T00:20:15;8.02;;;5.55;;
64885;SDS011;51514;52.206;5.114;2024-01-06T00:22:40;9.35;;;5.90;;
64885;SDS011;51514;52.206;5.114;2024-01-06T00:25:07;9.77;;;6.53;;
64885;SDS011;51514;52.206;5.114;2024-01-06T00:27:33;8.65;;;6.32;;
64885;SDS011;51514;52.206;5.114;2024-01-06T00:29:58;9.38;;;6.72;;
64885;SDS011;51514;52.206;5.114;2024-01-06T00:32:23;9.60;;;7.07;;
64885;SDS011;51514;52.206;5.114;2024-01-06T00:34:49;11.25;;;7.25;;
64885;SDS011;51514;52.206;5.114;2024-01-06T00:37:14;11.05;;;7.70;;
64885;SDS011;51514;52.206;5.114;2024-01-06T00:39:39;11.57;;;6.78;;
64885;SDS011;51514;52.206;5.114;2024-01-06T00:42:04;10.02;;;6.60;;
64885;SDS011;51514;52.206;5.114;2024-01-06T00:44:30;11.32;;;5.88;;
64885;SDS011;51514;52.206;5.114;2024-01-06T00:46:55;6.95;;;5.40;;
64885;SDS011;51514;52.206;5.114;2024-01-06T00:49:20;8.27;;;5.65;;
64885;SDS011;51514;52.206;5.114;2024-01-06T00:51:46;9.73;;;6.03;;
64885;SDS011;51514;52.206;5.114;2024-01-06T00:54:11;7.88;;;5.57;;
64885;SDS011;51514;52.206;5.114;2024-01-06T00:56:37;12.80;;;6.45;;
64885;SDS011;51514;52.206;5.114;2024-01-06T00:59:02;7.72;;;5.75;;
64885;SDS011;51514;52.206;5.114;2024-01-06T01:01:28;7.82;;;5.65;;
64885;SDS011;51514;52.206;5.114;2024-01-06T01:03:53;9.55;;;6.45;;
64885;SDS011;51514;52.206;5.114;2024-01-06T01:06:18;11.57;;;6.60;;
64885;SDS011;51514;52.206;5.114;2024-01-06T01:08:43;14.48;;;7.05;;
64885;SDS011;51514;52.206;5.114;2024-01-06T01:11:10;11.05;;;7.53;;
64885;SDS011;51514;52.206;5.114;2024-01-06T01:13:35;11.18;;;7.70;;
64885;SDS011;51514;52.206;5.114;2024-01-06T01:16:00;10.45;;;5.55;;
64885;SDS011;51514;52.206;5.114;2024-01-06T01:18:26;8.55;;;6.45;;
64885;SDS011;51514;52.206;5.114;2024-01-06T01:20:51;8.32;;;5.57;;
64885;SDS011;51514;52.206;5.114;2024-01-06T01:23:16;8.77;;;5.82;;
64885;SDS011;51514;52.206;5.114;2024-01-06T01:25:42;9.15;;;6.07;;
64885;SDS011;51514;52.206;5.114;2024-01-06T01:28:07;8.98;;;5.72;;
64885;SDS011;51514;52.206;5.114;2024-01-06T01:30:32;8.55;;;6.32;;
64885;SDS011;51514;52.206;5.114;2024-01-06T01:32:58;8.02;;;6.47;;
64885;SDS011;51514;52.206;5.114;2024-01-06T01:35:23;9.93;;;6.35;;
64885;SDS011;51514;52.206;5.114;2024-01-06T01:37:49;9.48;;;6.45;;
64885;SDS011;51514;52.206;5.114;2024-01-06T01:40:14;10.10;;;7.03;;
64885;SDS011;51514;52.206;5.114;2024-01-06T01:42:40;8.70;;;6.30;;
64885;SDS011;51514;52.206;5.114;2024-01-06T01:45:07;9.43;;;6.68;;
64885;SDS011;51514;52.206;5.114;2024-01-06T01:47:33;9.55;;;6.45;;
64885;SDS011;51514;52.206;5.114;2024-01-06T01:49:58;9.73;;;6.95;;
64885;SDS011;51514;52.206;5.114;2024-01-06T01:52:24;9.35;;;6.18;;
64885;SDS011;51514;52.206;5.114;2024-01-06T01:54:50;10.75;;;5.93;;
64885;SDS011;51514;52.206;5.114;2024-01-06T01:57:17;11.48;;;7.28;;
64885;SDS011;51514;52.206;5.114;2024-01-06T01:59:43;10.60;;;6.65;;
64885;SDS011;51514;52.206;5.114;2024-01-06T02:02:08;9.63;;;6.45;;
64885;SDS011;51514;52.206;5.114;2024-01-06T02:04:34;9.80;;;6.20;;
64885;SDS011;51514;52.206;5.114;2024-01-06T02:07:00;7.38;;;5.03;;
64885;SDS011;51514;52.206;5.114;2024-01-06T02:09:25;7.93;;;5.32;;
64885;SDS011;51514;52.206;5.114;2024-01-06T02:11:54;9.70;;;5.50;;
64885;SDS011;51514;52.206;5.114;2024-01-06T02:14:21;7.53;;;6.03;;
64885;SDS011;51514;52.206;5.114;2024-01-06T02:16:46;7.22;;;5.13;;
64885;SDS011;51514;52.206;5.114;2024-01-06T02:19:12;7.15;;;4.97;;
64885;SDS011;51514;52.206;5.114;2024-01-06T02:21:41;8.18;;;5.43;;
64885;SDS011;51514;52.206;5.114;2024-01-06T02:24:09;7.75;;;5.68;;
64885;SDS011;51514;52.206;5.114;2024-01-06T02:26:34;10.32;;;5.85;;
64885;SDS011;51514;52.206;5.114;2024-01-06T02:29:00;13.27;;;5.30;;
64885;SDS011;51514;52.206;5.114;2024-01-06T02:31:26;6.03;;;5.00;;
64885;SDS011;51514;52.206;5.114;2024-01-06T02:33:52;6.32;;;4.65;;
64885;SDS011;51514;52.206;5.114;2024-01-06T02:36:17;6.82;;;4.57;;
64885;SDS011;51514;52.206;5.114;2024-01-06T02:38:42;5.85;;;4.70;;
64885;SDS011;51514;52.206;5.114;2024-01-06T02:41:08;6.72;;;4.75;;
64885;SDS011;51514;52.206;5.114;2024-01-06T02:43:33;6.85;;;5.57;;
64885;SDS011;51514;52.206;5.114;2024-01-06T02:45:58;10.38;;;5.85;;
64885;SDS011;51514;52.206;5.114;2024-01-06T02:48:24;9.35;;;6.30;;
64885;SDS011;51514;52.206;5.114;2024-01-06T02:50:49;8.90;;;6.30;;
64885;SDS011;51514;52.206;5.114;2024-01-06T02:53:14;13.55;;;7.60;;
64885;SDS011;51514;52.206;5.114;2024-01-06T02:55:40;11.10;;;8.38;;
64885;SDS011;51514;52.206;5.114;2024-01-06T02:58:05;10.82;;;8.30;;
64885;SDS011;51514;52.206;5.114;2024-01-06T03:00:30;11.57;;;7.63;;
64885;SDS011;51514;52.206;5.114;2024-01-06T03:02:56;9.93;;;7.22;;
64885;SDS011;51514;52.206;5.114;2024-01-06T03:05:21;13.07;;;8.10;;
64885;SDS011;51514;52.206;5.114;2024-01-06T03:07:46;13.07;;;8.10;;
64885;SDS011;51514;52.206;5.114;2024-01-06T03:10:11;11.60;;;8.75;;
64885;SDS011;51514;52.206;5.114;2024-01-06T03:12:37;13.82;;;9.25;;
64885;SDS011;51514;52.206;5.114;2024-01-06T03:15:05;10.68;;;7.90;;
64885;SDS011;51514;52.206;5.114;2024-01-06T03:17:30;11.10;;;7.65;;
64885;SDS011;51514;52.206;5.114;2024-01-06T03:19:56;12.07;;;8.30;;
64885;SDS011;51514;52.206;5.114;2024-01-06T03:22:21;11.32;;;7.78;;
64885;SDS011;51514;52.206;5.114;2024-01-06T03:24:47;10.73;;;8.68;;
64885;SDS011;51514;52.206;5.114;2024-01-06T03:27:12;11.48;;;8.75;;
64885;SDS011;51514;52.206;5.114;2024-01-06T03:29:37;13.05;;;8.38;;
64885;SDS011;51514;52.206;5.114;2024-01-06T03:32:03;15.38;;;9.50;;
64885;SDS011;51514;52.206;5.114;2024-01-06T03:34:28;13.32;;;9.05;;
64885;SDS011;51514;52.206;5.114;2024-01-06T03:36:54;14.63;;;9.50;;
64885;SDS011;51514;52.206;5.114;2024-01-06T03:39:19;15.15;;;9.40;;
64885;SDS011;51514;52.206;5.114;2024-01-06T03:41:44;13.77;;;9.35;;
64885;SDS011;51514;52.206;5.114;2024-01-06T03:44:10;11.15;;;9.45;;
64885;SDS011;51514;52.206;5.114;2024-01-06T03:46:35;13.65;;;9.63;;
64885;SDS011;51514;52.206;5.114;2024-01-06T03:49:01;13.43;;;9.00;;
64885;SDS011;51514;52.206;5.114;2024-01-06T03:51:26;13.85;;;10.20;;
64885;SDS011;51514;52.206;5.114;2024-01-06T03:53:51;12.88;;;9.50;;
64885;SDS011;51514;52.206;5.114;2024-01-06T03:56:17;12.52;;;9.00;;
64885;SDS011;51514;52.206;5.114;2024-01-06T03:58:43;14.77;;;10.10;;
64885;SDS011;51514;52.206;5.114;2024-01-06T04:01:08;14.80;;;10.13;;
64885;SDS011;51514;52.206;5.114;2024-01-06T04:03:34;16.40;;;10.13;;
64885;SDS011;51514;52.206;5.114;2024-01-06T04:06:00;14.02;;;9.70;;
64885;SDS011;51514;52.206;5.114;2024-01-06T04:08:26;16.08;;;10.18;;
64885;SDS011;51514;52.206;5.114;2024-01-06T04:10:51;18.67;;;10.20;;
64885;SDS011;51514;52.206;5.114;2024-01-06T04:13:16;15.00;;;9.20;;
64885;SDS011;51514;52.206;5.114;2024-01-06T04:15:42;15.50;;;10.18;;
64885;SDS011;51514;52.206;5.114;2024-01-06T04:18:07;14.32;;;9.27;;
64885;SDS011;51514;52.206;5.114;2024-01-06T04:20:34;12.32;;;8.63;;
64885;SDS011;51514;52.206;5.114;2024-01-06T04:22:59;12.18;;;8.80;;
64885;SDS011;51514;52.206;5.114;2024-01-06T04:25:25;16.73;;;10.52;;
64885;SDS011;51514;52.206;5.114;2024-01-06T04:27:50;13.18;;;9.23;;
64885;SDS011;51514;52.206;5.114;2024-01-06T04:30:15;15.57;;;9.13;;
64885;SDS011;51514;52.206;5.114;2024-01-06T04:32:41;14.02;;;8.85;;
64885;SDS011;51514;52.206;5.114;2024-01-06T04:35:07;13.55;;;8.98;;
64885;SDS011;51514;52.206;5.114;2024-01-06T04:37:33;13.35;;;8.82;;
64885;SDS011;51514;52.206;5.114;2024-01-06T04:39:59;14.30;;;8.82;;
64885;SDS011;51514;52.206;5.114;2024-01-06T04:42:24;12.75;;;8.70;;
64885;SDS011;51514;52.206;5.114;2024-01-06T04:44:50;13.55;;;9.23;;
64885;SDS011;51514;52.206;5.114;2024-01-06T04:47:15;12.07;;;8.75;;
64885;SDS011;51514;52.206;5.114;2024-01-06T04:49:41;14.65;;;9.60;;
64885;SDS011;51514;52.206;5.114;2024-01-06T04:52:06;12.80;;;10.30;;
64885;SDS011;51514;52.206;5.114;2024-01-06T04:54:31;15.73;;;9.45;;
64885;SDS011;51514;52.206;5.114;2024-01-06T04:56:58;14.45;;;10.15;;
64885;SDS011;51514;52.206;5.114;2024-01-06T04:59:23;14.88;;;10.70;;
64885;SDS011;51514;52.206;5.114;2024-01-06T05:01:49;14.65;;;8.75;;
64885;SDS011;51514;52.206;5.114;2024-01-06T05:04:16;15.48;;;7.82;;
64885;SDS011;51514;52.206;5.114;2024-01-06T05:06:41;12.85;;;6.07;;
64885;SDS011;51514;52.206;5.114;2024-01-06T05:09:07;7.53;;;5.43;;
64885;SDS011;51514;52.206;5.114;2024-01-06T05:11:32;9.82;;;5.93;;
64885;SDS011;51514;52.206;5.114;2024-01-06T05:13:57;6.60;;;4.45;;
64885;SDS011;51514;52.206;5.114;2024-01-06T05:16:23;5.00;;;4.20;;
64885;SDS011;51514;52.206;5.114;2024-01-06T05:18:48;7.00;;;4.50;;
64885;SDS011;51514;52.206;5.114;2024-01-06T05:21:13;9.05;;;4.72;;
64885;SDS011;51514;52.206;5.114;2024-01-06T05:23:38;8.73;;;4.75;;
64885;SDS011;51514;52.206;5.114;2024-01-06T05:26:04;7.38;;;5.15;;
64885;SDS011;51514;52.206;5.114;2024-01-06T05:28:30;11.68;;;6.63;;
64885;SDS011;51514;52.206;5.114;2024-01-06T05:30:55;7.00;;;5.28;;
64885;SDS011;51514;52.206;5.114;2024-01-06T05:33:21;9.57;;;6.72;;
64885;SDS011;51514;52.206;5.114;2024-01-06T05:35:46;10.75;;;6.57;;
64885;SDS011;51514;52.206;5.114;2024-01-06T05:38:11;9.77;;;6.30;;
64885;SDS011;51514;52.206;5.114;2024-01-06T05:40:37;10.43;;;6.00;;
64885;SDS011;51514;52.206;5.114;2024-01-06T05:43:02;10.98;;;6.32;;
64885;SDS011;51514;52.206;5.114;2024-01-06T05:45:27;15.65;;;7.90;;
64885;SDS011;51514;52.206;5.114;2024-01-06T05:47:53;12.57;;;7.20;;
64885;SDS011;51514;52.206;5.114;2024-01-06T05:50:18;8.85;;;6.93;;
64885;SDS011;51514;52.206;5.114;2024-01-06T05:52:44;12.18;;;7.70;;
64885;SDS011;51514;52.206;5.114;2024-01-06T05:55:12;9.50;;;6.93;;
64885;SDS011;51514;52.206;5.114;2024-01-06T05:57:37;12.68;;;6.75;;
64885;SDS011;51514;52.206;5.114;2024-01-06T06:00:03;9.85;;;6.85;;
64885;SDS011;51514;52.206;5.114;2024-01-06T06:02:29;10.88;;;6.93;;
64885;SDS011;51514;52.206;5.114;2024-01-06T06:04:55;10.18;;;7.03;;
64885;SDS011;51514;52.206;5.114;2024-01-06T06:07:20;7.68;;;6.47;;
64885;SDS011;51514;52.206;5.114;2024-01-06T06:09:45;11.05;;;7.00;;
64885;SDS011;51514;52.206;5.114;2024-01-06T06:12:14;12.20;;;6.60;;
64885;SDS011;51514;52.206;5.114;2024-01-06T06:14:39;10.88;;;7.07;;
64885;SDS011;51514;52.206;5.114;2024-01-06T06:17:04;9.43;;;6.10;;
64885;SDS011;51514;52.206;5.114;2024-01-06T06:19:30;7.40;;;5.95;;
64885;SDS011;51514;52.206;5.114;2024-01-06T06:21:56;8.40;;;4.75;;
64885;SDS011;51514;52.206;5.114;2024-01-06T06:24:21;6.60;;;5.00;;
64885;SDS011;51514;52.206;5.114;2024-01-06T06:26:46;6.57;;;5.10;;
64885;SDS011;51514;52.206;5.114;2024-01-06T06:29:12;11.77;;;5.63;;
64885;SDS011;51514;52.206;5.114;2024-01-06T06:31:37;10.75;;;6.10;;
64885;SDS011;51514;52.206;5.114;2024-01-06T06:34:02;8.35;;;5.95;;
64885;SDS011;51514;52.206;5.114;2024-01-06T06:36:28;9.13;;;6.20;;
64885;SDS011;51514;52.206;5.114;2024-01-06T06:38:54;9.93;;;6.50;;
64885;SDS011;51514;52.206;5.114;2024-01-06T06:41:19;11.02;;;6.85;;
64885;SDS011;51514;52.206;5.114;2024-01-06T06:43:45;8.95;;;6.05;;
64885;SDS011;51514;52.206;5.114;2024-01-06T06:46:10;20.85;;;6.95;;
64885;SDS011;51514;52.206;5.114;2024-01-06T06:48:35;9.77;;;6.97;;
64885;SDS011;51514;52.206;5.114;2024-01-06T06:51:01;11.95;;;7.82;;
64885;SDS011;51514;52.206;5.114;2024-01-06T06:53:27;11.55;;;7.00;;
64885;SDS011;51514;52.206;5.114;2024-01-06T06:55:52;12.23;;;7.28;;
64885;SDS011;51514;52.206;5.114;2024-01-06T06:58:18;10.98;;;7.30;;
64885;SDS011;51514;52.206;5.114;2024-01-06T07:00:43;11.55;;;8.10;;
64885;SDS011;51514;52.206;5.114;2024-01-06T07:03:09;15.38;;;9.00;;
64885;SDS011;51514;52.206;5.114;2024-01-06T07:05:34;10.23;;;7.75;;
64885;SDS011;51514;52.206;5.114;2024-01-06T07:08:00;12.13;;;8.40;;
64885;SDS011;51514;52.206;5.114;2024-01-06T07:10:25;11.25;;;8.43;;
64885;SDS011;51514;52.206;5.114;2024-01-06T07:12:51;10.85;;;7.95;;
64885;SDS011;51514;52.206;5.114;2024-01-06T07:15:16;11.68;;;8.40;;
64885;SDS011;51514;52.206;5.114;2024-01-06T07:17:41;9.85;;;7.68;;
64885;SDS011;51514;52.206;5.114;2024-01-06T07:20:07;16.70;;;8.23;;
64885;SDS011;51514;52.206;5.114;2024-01-06T07:22:33;13.25;;;8.05;;
64885;SDS011;51514;52.206;5.114;2024-01-06T07:25:01;10.38;;;6.72;;
64885;SDS011;51514;52.206;5.114;2024-01-06T07:27:27;12.00;;;7.53;;
64885;SDS011;51514;52.206;5.114;2024-01-06T07:29:53;12.43;;;9.13;;
64885;SDS011;51514;52.206;5.114;2024-01-06T07:32:18;10.90;;;8.07;;
64885;SDS011;51514;52.206;5.114;2024-01-06T07:34:44;11.57;;;8.18;;
64885;SDS011;51514;52.206;5.114;2024-01-06T07:37:09;14.20;;;7.90;;
64885;SDS011;51514;52.206;5.114;2024-01-06T07:39:34;10.75;;;7.38;;
64885;SDS011;51514;52.206;5.114;2024-01-06T07:42:00;10.75;;;8.02;;
64885;SDS011;51514;52.206;5.114;2024-01-06T07:44:25;12.38;;;7.60;;
64885;SDS011;51514;52.206;5.114;2024-01-06T07:46:51;10.75;;;8.10;;
64885;SDS011;51514;52.206;5.114;2024-01-06T07:49:17;12.52;;;8.40;;
64885;SDS011;51514;52.206;5.114;2024-01-06T07:51:42;11.30;;;7.75;;
64885;SDS011;51514;52.206;5.114;2024-01-06T07:54:08;11.73;;;7.20;;
64885;SDS011;51514;52.206;5.114;2024-01-06T07:56:34;13.15;;;8.25;;
64885;SDS011;51514;52.206;5.114;2024-01-06T07:59:00;11.73;;;7.35;;
64885;SDS011;51514;52.206;5.114;2024-01-06T08:01:26;10.75;;;7.45;;
64885;SDS011;51514;52.206;5.114;2024-01-06T08:03:51;11.40;;;7.38;;
64885;SDS011;51514;52.206;5.114;2024-01-06T08:06:17;10.07;;;7.15;;
64885;SDS011;51514;52.206;5.114;2024-01-06T08:08:42;15.23;;;7.53;;
64885;SDS011;51514;52.206;5.114;2024-01-06T08:11:08;15.15;;;7.68;;
64885;SDS011;51514;52.206;5.114;2024-01-06T08:13:33;12.30;;;6.72;;
64885;SDS011;51514;52.206;5.114;2024-01-06T08:15:59;14.25;;;6.65;;
64885;SDS011;51514;52.206;5.114;2024-01-06T08:18:25;10.52;;;6.90;;
64885;SDS011;51514;52.206;5.114;2024-01-06T08:20:50;11.02;;;6.47;;
64885;SDS011;51514;52.206;5.114;2024-01-06T08:23:15;10.35;;;5.93;;
64885;SDS011;51514;52.206;5.114;2024-01-06T08:25:42;8.32;;;5.88;;
64885;SDS011;51514;52.206;5.114;2024-01-06T08:28:08;8.27;;;5.90;;
64885;SDS011;51514;52.206;5.114;2024-01-06T08:30:33;8.55;;;5.78;;
64885;SDS011;51514;52.206;5.114;2024-01-06T08:32:59;9.07;;;6.15;;
64885;SDS011;51514;52.206;5.114;2024-01-06T08:35:24;9.43;;;5.90;;
64885;SDS011;51514;52.206;5.114;2024-01-06T08:37:50;8.13;;;5.80;;
64885;SDS011;51514;52.206;5.114;2024-01-06T08:40:15;9.20;;;6.45;;
64885;SDS011;51514;52.206;5.114;2024-01-06T08:42:41;10.90;;;5.68;;
64885;SDS011;51514;52.206;5.114;2024-01-06T08:45:06;9.23;;;5.97;;
64885;SDS011;51514;52.206;5.114;2024-01-06T08:47:31;11.10;;;5.82;;
64885;SDS011;51514;52.206;5.114;2024-01-06T08:49:57;9.75;;;5.35;;
64885;SDS011;51514;52.206;5.114;2024-01-06T08:52:22;11.10;;;6.65;;
64885;SDS011;51514;52.206;5.114;2024-01-06T08:54:48;8.00;;;5.55;;
64885;SDS011;51514;52.206;5.114;2024-01-06T08:57:14;8.57;;;6.00;;
64885;SDS011;51514;52.206;5.114;2024-01-06T08:59:40;7.78;;;5.63;;
64885;SDS011;51514;52.206;5.114;2024-01-06T09:02:05;8.27;;;5.10;;
64885;SDS011;51514;52.206;5.114;2024-01-06T09:04:30;6.07;;;4.78;;
64885;SDS011;51514;52.206;5.114;2024-01-06T09:06:56;8.50;;;5.20;;
64885;SDS011;51514;52.206;5.114;2024-01-06T09:09:21;9.35;;;5.35;;
64885;SDS011;51514;52.206;5.114;2024-01-06T09:11:48;7.00;;;5.30;;
64885;SDS011;51514;52.206;5.114;2024-01-06T09:14:13;8.52;;;6.18;;
64885;SDS011;51514;52.206;5.114;2024-01-06T09:16:38;9.40;;;5.35;;
64885;SDS011;51514;52.206;5.114;2024-01-06T09:19:04;9.38;;;5.45;;
64885;SDS011;51514;52.206;5.114;2024-01-06T09:21:29;7.03;;;5.22;;
64885;SDS011;51514;52.206;5.114;2024-01-06T09:23:55;7.75;;;5.50;;
64885;SDS011;51514;52.206;5.114;2024-01-06T09:26:20;10.63;;;6.32;;
64885;SDS011;51514;52.206;5.114;2024-01-06T09:28:45;10.75;;;6.00;;
64885;SDS011;51514;52.206;5.114;2024-01-06T09:31:11;12.77;;;7.07;;
64885;SDS011;51514;52.206;5.114;2024-01-06T09:33:36;8.73;;;6.38;;
64885;SDS011;51514;52.206;5.114;2024-01-06T09:36:02;10.25;;;5.63;;
64885;SDS011;51514;52.206;5.114;2024-01-06T09:38:27;9.75;;;6.13;;
64885;SDS011;51514;52.206;5.114;2024-01-06T09:40:53;13.20;;;6.25;;
64885;SDS011;51514;52.206;5.114;2024-01-06T09:43:20;8.25;;;5.97;;
64885;SDS011;51514;52.206;5.114;2024-01-06T09:45:46;10.35;;;5.70;;
64885;SDS011;51514;52.206;5.114;2024-01-06T09:48:20;10.27;;;6.68;;
64885;SDS011;51514;52.206;5.114;2024-01-06T09:50:53;10.90;;;7.88;;
64885;SDS011;51514;52.206;5.114;2024-01-06T09:53:21;11.02;;;7.53;;
64885;SDS011;51514;52.206;5.114;2024-01-06T09:55:48;8.43;;;6.68;;
64885;SDS011;51514;52.206;5.114;2024-01-06T09:58:17;9.00;;;6.18;;
64885;SDS011;51514;52.206;5.114;2024-01-06T10:00:42;10.07;;;6.55;;
64885;SDS011;51514;52.206;5.114;2024-01-06T10:03:07;8.95;;;6.60;;
64885;SDS011;51514;52.206;5.114;2024-01-06T10:05:33;10.43;;;6.10;;
64885;SDS011;51514;52.206;5.114;2024-01-06T10:07:58;10.13;;;5.95;;
64885;SDS011;51514;52.206;5.114;2024-01-06T10:10:24;9.52;;;5.95;;
64885;SDS011;51514;52.206;5.114;2024-01-06T10:12:49;9.52;;;6.53;;
64885;SDS011;51514;52.206;5.114;2024-01-06T10:15:18;6.60;;;5.88;;
64885;SDS011;51514;52.206;5.114;2024-01-06T10:17:45;8.95;;;6.18;;
64885;SDS011;51514;52.206;5.114;2024-01-06T10:20:11;8.88;;;5.72;;
64885;SDS011;51514;52.206;5.114;2024-01-06T10:22:37;11.15;;;6.05;;
64885;SDS011;51514;52.206;5.114;2024-01-06T10:25:05;10.60;;;6.70;;
64885;SDS011;51514;52.206;5.114;2024-01-06T10:27:33;11.35;;;5.97;;
64885;SDS011;51514;52.206;5.114;2024-01-06T10:30:03;9.40;;;5.18;;
64885;SDS011;51514;52.206;5.114;2024-01-06T10:32:33;7.60;;;6.05;;
64885;SDS011;51514;52.206;5.114;2024-01-06T10:35:02;7.38;;;5.43;;
64885;SDS011;51514;52.206;5.114;2024-01-06T10:37:28;9.77;;;6.00;;
64885;SDS011;51514;52.206;5.114;2024-01-06T10:40:10;9.07;;;5.65;;
64885;SDS011;51514;52.206;5.114;2024-01-06T10:42:44;6.87;;;5.60;;
64885;SDS011;51514;52.206;5.114;2024-01-06T10:45:13;9.55;;;6.65;;
64885;SDS011;51514;52.206;5.114;2024-01-06T10:47:40;10.93;;;5.93;;
64885;SDS011;51514;52.206;5.114;2024-01-06T10:50:10;9.50;;;5.97;;
64885;SDS011;51514;52.206;5.114;2024-01-06T10:52:37;11.85;;;5.63;;
64885;SDS011;51514;52.206;5.114;2024-01-06T10:55:04;10.88;;;5.97;;
64885;SDS011;51514;52.206;5.114;2024-01-06T10:57:30;9.63;;;6.05;;
64885;SDS011;51514;52.206;5.114;2024-01-06T10:59:59;7.95;;;5.18;;
64885;SDS011;51514;52.206;5.114;2024-01-06T11:02:25;6.93;;;5.47;;
64885;SDS011;51514;52.206;5.114;2024-01-06T11:04:52;9.90;;;5.78;;
64885;SDS011;51514;52.206;5.114;2024-01-06T11:07:21;9.73;;;5.32;;
64885;SDS011;51514;52.206;5.114;2024-01-06T11:09:50;10.70;;;6.20;;
64885;SDS011;51514;52.206;5.114;2024-01-06T11:12:22;9.20;;;5.03;;
64885;SDS011;51514;52.206;5.114;2024-01-06T11:14:48;7.63;;;5.22;;
64885;SDS011;51514;52.206;5.114;2024-01-06T11:17:26;8.60;;;5.85;;
64885;SDS011;51514;52.206;5.114;2024-01-06T11:20:31;7.50;;;5.22;;
64885;SDS011;51514;52.206;5.114;2024-01-06T11:23:16;9.63;;;5.82;;
64885;SDS011;51514;52.206;5.114;2024-01-06T11:25:44;10.95;;;6.07;;
64885;SDS011;51514;52.206;5.114;2024-01-06T11:28:09;8.90;;;7.20;;
64885;SDS011;51514;52.206;5.114;2024-01-06T11:30:37;12.10;;;7.10;;
64885;SDS011;51514;52.206;5.114;2024-01-06T11:33:03;8.77;;;6.18;;
64885;SDS011;51514;52.206;5.114;2024-01-06T11:35:29;10.00;;;7.03;;
64885;SDS011;51514;52.206;5.114;2024-01-06T11:37:56;11.45;;;6.68;;
64885;SDS011;51514;52.206;5.114;2024-01-06T11:42:56;10.65;;;8.10;;
64885;SDS011;51514;52.206;5.114;2024-01-06T11:45:41;11.27;;;6.35;;
64885;SDS011;51514;52.206;5.114;2024-01-06T11:48:08;10.93;;;6.28;;
64885;SDS011;51514;52.206;5.114;2024-01-06T11:50:35;10.02;;;5.88;;
64885;SDS011;51514;52.206;5.114;2024-01-06T11:53:03;9.65;;;6.50;;
64885;SDS011;51514;52.206;5.114;2024-01-06T11:55:30;9.82;;;6.35;;
64885;SDS011;51514;52.206;5.114;2024-01-06T11:57:59;10.20;;;6.20;;
64885;SDS011;51514;52.206;5.114;2024-01-06T12:00:34;7.93;;;5.47;;
64885;SDS011;51514;52.206;5.114;2024-01-06T12:03:04;8.10;;;5.35;;
64885;SDS011;51514;52.206;5.114;2024-01-06T12:05:29;11.68;;;6.18;;
64885;SDS011;51514;52.206;5.114;2024-01-06T12:08:02;11.57;;;6.18;;
64885;SDS011;51514;52.206;5.114;2024-01-06T12:10:31;8.63;;;5.65;;
64885;SDS011;51514;52.206;5.114;2024-01-06T12:12:58;7.38;;;6.03;;
64885;SDS011;51514;52.206;5.114;2024-01-06T12:15:33;9.98;;;6.47;;
64885;SDS011;51514;52.206;5.114;2024-01-06T12:18:01;9.20;;;5.28;;
64885;SDS011;51514;52.206;5.114;2024-01-06T12:20:27;7.05;;;5.50;;
64885;SDS011;51514;52.206;5.114;2024-01-06T12:22:54;7.65;;;5.53;;
64885;SDS011;51514;52.206;5.114;2024-01-06T12:25:21;9.20;;;5.18;;
64885;SDS011;51514;52.206;5.114;2024-01-06T12:27:48;9.82;;;6.28;;
64885;SDS011;51514;52.206;5.114;2024-01-06T12:30:21;8.05;;;5.35;;
64885;SDS011;51514;52.206;5.114;2024-01-06T12:32:48;10.35;;;5.25;;
64885;SDS011;51514;52.206;5.114;2024-01-06T12:35:14;8.20;;;6.30;;
64885;SDS011;51514;52.206;5.114;2024-01-06T12:37:41;13.55;;;6.80;;
64885;SDS011;51514;52.206;5.114;2024-01-06T12:40:11;11.60;;;6.97;;
64885;SDS011;51514;52.206;5.114;2024-01-06T12:42:38;10.65;;;7.00;;
64885;SDS011;51514;52.206;5.114;2024-01-06T12:45:03;11.20;;;7.18;;
64885;SDS011;51514;52.206;5.114;2024-01-06T12:47:29;10.82;;;6.75;;
64885;SDS011;51514;52.206;5.114;2024-01-06T12:49:54;10.75;;;6.13;;
64885;SDS011;51514;52.206;5.114;2024-01-06T12:52:20;10.27;;;7.03;;
64885;SDS011;51514;52.206;5.114;2024-01-06T12:54:45;11.98;;;8.40;;
64885;SDS011;51514;52.206;5.114;2024-01-06T12:57:11;12.38;;;6.80;;
64885;SDS011;51514;52.206;5.114;2024-01-06T12:59:36;11.07;;;7.93;;
64885;SDS011;51514;52.206;5.114;2024-01-06T13:02:02;13.52;;;8.38;;
64885;SDS011;51514;52.206;5.114;2024-01-06T13:04:28;16.80;;;8.25;;
64885;SDS011;51514;52.206;5.114;2024-01-06T13:06:53;13.52;;;7.82;;
64885;SDS011;51514;52.206;5.114;2024-01-06T13:09:18;12.27;;;7.57;;
64885;SDS011;51514;52.206;5.114;2024-01-06T13:11:44;13.55;;;8.30;;
64885;SDS011;51514;52.206;5.114;2024-01-06T13:14:12;10.60;;;7.40;;
64885;SDS011;51514;52.206;5.114;2024-01-06T13:16:38;12.90;;;7.75;;
64885;SDS011;51514;52.206;5.114;2024-01-06T13:19:03;10.07;;;7.55;;
64885;SDS011;51514;52.206;5.114;2024-01-06T13:21:29;12.52;;;7.53;;
64885;SDS011;51514;52.206;5.114;2024-01-06T13:23:55;12.48;;;8.20;;
64885;SDS011;51514;52.206;5.114;2024-01-06T13:26:25;10.45;;;6.60;;
64885;SDS011;51514;52.206;5.114;2024-01-06T13:28:51;12.20;;;7.85;;
64885;SDS011;51514;52.206;5.114;2024-01-06T13:31:17;11.55;;;8.13;;
64885;SDS011;51514;52.206;5.114;2024-01-06T13:33:44;13.57;;;8.82;;
64885;SDS011;51514;52.206;5.114;2024-01-06T13:36:09;12.75;;;7.72;;
64885;SDS011;51514;52.206;5.114;2024-01-06T13:38:34;13.57;;;8.38;;
64885;SDS011;51514;52.206;5.114;2024-01-06T13:41:00;11.35;;;7.78;;
64885;SDS011;51514;52.206;5.114;2024-01-06T13:43:25;13.80;;;8.30;;
64885;SDS011;51514;52.206;5.114;2024-01-06T13:45:51;9.82;;;7.38;;
64885;SDS011;51514;52.206;5.114;2024-01-06T13:48:16;13.23;;;7.65;;
64885;SDS011;51514;52.206;5.114;2024-01-06T13:50:41;10.70;;;7.57;;
64885;SDS011;51514;52.206;5.114;2024-01-06T13:53:08;11.35;;;7.88;;
64885;SDS011;51514;52.206;5.114;2024-01-06T13:55:33;12.15;;;7.72;;
64885;SDS011;51514;52.206;5.114;2024-01-06T13:57:59;11.35;;;7.60;;
64885;SDS011;51514;52.206;5.114;2024-01-06T14:00:24;13.40;;;7.45;;
64885;SDS011;51514;52.206;5.114;2024-01-06T14:02:50;12.45;;;7.90;;
64885;SDS011;51514;52.206;5.114;2024-01-06T14:05:16;13.05;;;8.20;;
64885;SDS011;51514;52.206;5.114;2024-01-06T14:07:44;10.32;;;7.38;;
64885;SDS011;51514;52.206;5.114;2024-01-06T14:10:12;12.32;;;7.63;;
64885;SDS011;51514;52.206;5.114;2024-01-06T14:12:40;10.73;;;7.20;;
64885;SDS011;51514;52.206;5.114;2024-01-06T14:15:06;15.15;;;8.13;;
64885;SDS011;51514;52.206;5.114;2024-01-06T14:17:32;10.38;;;7.82;;
64885;SDS011;51514;52.206;5.114;2024-01-06T14:19:57;10.07;;;6.90;;
64885;SDS011;51514;52.206;5.114;2024-01-06T14:22:23;12.35;;;7.85;;
64885;SDS011;51514;52.206;5.114;2024-01-06T14:24:48;12.63;;;8.50;;
64885;SDS011;51514;52.206;5.114;2024-01-06T14:27:14;12.18;;;7.88;;
64885;SDS011;51514;52.206;5.114;2024-01-06T14:29:40;10.68;;;7.55;;
64885;SDS011;51514;52.206;5.114;2024-01-06T14:32:06;9.20;;;7.22;;
64885;SDS011;51514;52.206;5.114;2024-01-06T14:34:31;9.55;;;7.95;;
64885;SDS011;51514;52.206;5.114;2024-01-06T14:36:56;13.23;;;6.80;;